• Join FlightAware (Why Join?)
  • Login
  • US Flag 
11:02PM EDT


 

Airport Tracker/Info


-or-


 

Live Flight TrackerFlight Track Log ✈ DAL3970 ✈ 21-Apr-2013 ✈ KCWA - KDTW

Flight Track Log - Related Links

Times and Time Zones

All times are in EDT time to prevent confusion due to time zone crossing. See the DAL3970 flight status page for this flight to view local times or setup timezone preferences in your user account.

Time Position Orientation Groundspeed Altitude Reporting Facility
EDT Latitude Longitude Course Direction KTS MPH feet Rate Location/Type
07:44AM 44.7803 -89.6250 101° East 164 189 2,600  Level Minneapolis Center
07:45AM 44.7642 -89.5450 106° East 200 230 5,400 2,880 Climbing Minneapolis Center
07:46AM 44.7123 -89.2514 107° East  Level FlightAware Approximate
07:46AM 44.7478 -89.4567 105° East 239 275 8,500  Level Minneapolis Center
07:47AM 44.6833 -89.1157 90° East  Level FlightAware Approximate
07:47AM 44.7300 -89.3425 102° East 285 328 11,000  Level Minneapolis Center
07:48AM 44.6733 -88.9765 109° East  Level FlightAware Approximate
07:48AM 44.7142 -89.2269 101° East 308 354 12,700  Level Minneapolis Center
07:49AM 44.6440 -88.8414 101° East  Level FlightAware Approximate
07:49AM 44.6917 -89.0808 102° East 363 418 14,100  Level Minneapolis Center
07:50AM 44.6694 -88.9383 102° East 374 430 15,600 1,560 Climbing Minneapolis Center
07:51AM 44.6453 -88.7839 102° East 397 457 17,600 1,560 Climbing Minneapolis Center
07:52AM 44.6186 -88.6028 102° East 403 464 19,100 1,440 Climbing Minneapolis Center
07:53AM 44.5936 -88.4444 102° East 410 472 20,600 1,260 Climbing Minneapolis Center
07:54AM 44.5689 -88.2836 102° East 418 481 21,700 960 Climbing Minneapolis Center
07:55AM 44.5231 -88.1317 113° Southeast 421 484 22,600 960 Climbing Minneapolis Center
07:56AM 44.4517 -87.9925 126° Southeast 434 499 23,700 1,020 Climbing Minneapolis Center
07:57AM 44.3797 -87.8525 126° Southeast 439 505 24,700 600 Climbing Minneapolis Center
07:58AM 44.3058 -87.7125 126° Southeast 447 514 25,000 120 Climbing Minneapolis Center
07:59AM 44.2311 -87.5675 126° Southeast 457 526 25,000  Level Minneapolis Center
08:00AM 44.1561 -87.4225 126° Southeast 459 528 25,000  Level Minneapolis Center
08:01AM 44.0789 -87.2772 126° Southeast 464 534 25,000  Level Minneapolis Center
08:02AM 44.0067 -87.1419 127° Southeast 460 529 25,000  Level Minneapolis Center
08:03AM 43.9314 -86.9978 126° Southeast 461 531 25,000  Level Minneapolis Center
08:04AM 43.8533 -86.8528 127° Southeast 467 537 25,000  Level Minneapolis Center
08:05AM 43.7856 -86.6919 120° Southeast 481 554 25,000  Level Minneapolis Center
08:06AM 43.7250 -86.5225 116° Southeast 490 564 25,000  Level Minneapolis Center
08:07AM 43.6633 -86.3514 116° Southeast 494 568 25,000  Level Minneapolis Center
08:08AM 43.6014 -86.1817 117° Southeast 494 568 25,000 -300 Level Minneapolis Center
08:09AM 43.5392 -86.0086 116° Southeast 498 573 24,400 -840 Descending Minneapolis Center
08:10AM 43.4769 -85.8389 117° Southeast 496 571 23,400 -720 Descending Minneapolis Center
08:11AM 43.4164 -85.6747 117° Southeast 484 557 23,000 -180 Descending Minneapolis Center
08:12AM 43.3439 -85.4789 117° Southeast 475 547 23,000  Level Chicago Center
08:13AM 43.2936 -85.3500 118° Southeast 482 555 23,000  Level Cleveland Center
08:14AM 43.2419 -85.1836 113° Southeast 477 549 23,000  Level Cleveland Center
08:15AM 43.2069 -85.0100 105° East 472 543 23,000  Level Cleveland Center
08:16AM 43.1758 -84.8369 104° East 472 543 23,000 -60 Level Cleveland Center
08:17AM 43.1300 -84.6686 110° East 472 543 22,900 -660 Descending Cleveland Center
08:18AM 43.1097 -84.6019 113° Southeast 473 544 22,100 -2,040 Descending Chicago Center
08:19AM 43.0589 -84.4364 113° Southeast 474 545 20,100 -1,980 Descending Chicago Center
08:19AM 43.0283 -84.3408 114° Southeast 465 535 18,900 -1,560 Descending Cleveland Center
08:20AM 42.9789 -84.1903 114° Southeast 448 516 17,600 -1,800 Descending Cleveland Center
08:21AM 42.9486 -84.0922 113° Southeast 425 489 16,100 -2,040 Descending Cleveland Center
08:21AM 42.9333 -84.0458 114° Southeast 423 487 15,600 -2,100 Descending Cleveland Center
08:22AM 42.8956 -83.9189 112° Southeast 402 463 13,600 -2,040 Descending Cleveland Center
08:23AM 42.8533 -83.7864 113° Southeast 348 400 12,000 -840 Descending Cleveland Center
08:24AM 42.8011 -83.7158 135° Southeast 297 342 12,000 -120 Level Cleveland Center
08:24AM 42.7889 -83.7067 151° Southeast 316 364 11,900 -1,200 Descending Cleveland Center
08:25AM 42.7275 -83.6642 153° Southeast 297 342 10,800 -1,320 Descending Cleveland Center
08:25AM 42.7153 -83.6550 151° Southeast 300 345 10,600 -1,500 Descending Cleveland Center
08:26AM 42.6544 -83.5900 142° Southeast 291 335 9,200 -1,560 Descending Cleveland Center
08:27AM 42.5833 -83.5189 144° Southeast 277 319 7,600 -1,440 Descending Cleveland Center
08:28AM 42.5222 -83.4597 144° Southeast 269 310 6,200 -1,260 Descending Cleveland Center
08:29AM 42.4672 -83.4036 143° Southeast 279 321 5,100 -1,140 Descending Cleveland Center
08:30AM 42.4122 -83.3506 145° Southeast 267 307 4,000 -1,020 Descending Cleveland Center
08:31AM 42.3317 -83.3272 168° South 197 227 2,900 -900 Descending Cleveland Center